sensor_id;sensor_type;location;lat;lon;timestamp;pressure;altitude;pressure_sealevel;temperature;humidity
45071;BME280;30836;48.906;9.140;2023-12-29T00:00:01;986.78;;;15.76;49.81
45071;BME280;30836;48.906;9.140;2023-12-29T00:01:02;986.76;;;15.71;49.89
45071;BME280;30836;48.906;9.140;2023-12-29T00:02:02;986.76;;;15.72;49.74
45071;BME280;30836;48.906;9.140;2023-12-29T00:03:03;986.72;;;15.73;49.68
45071;BME280;30836;48.906;9.140;2023-12-29T00:04:04;986.72;;;15.73;49.75
45071;BME280;30836;48.906;9.140;2023-12-29T00:05:04;986.70;;;15.71;49.71
45071;BME280;30836;48.906;9.140;2023-12-29T00:06:05;986.68;;;15.72;49.51
45071;BME280;30836;48.906;9.140;2023-12-29T00:07:06;986.66;;;15.70;49.76
45071;BME280;30836;48.906;9.140;2023-12-29T00:08:06;986.66;;;15.64;49.81
45071;BME280;30836;48.906;9.140;2023-12-29T00:09:07;986.66;;;15.59;50.10
45071;BME280;30836;48.906;9.140;2023-12-29T00:10:07;986.66;;;15.49;50.32
45071;BME280;30836;48.906;9.140;2023-12-29T00:11:15;986.66;;;15.42;50.23
45071;BME280;30836;48.906;9.140;2023-12-29T00:12:18;986.64;;;15.39;50.35
45071;BME280;30836;48.906;9.140;2023-12-29T00:13:19;986.64;;;15.38;50.28
45071;BME280;30836;48.906;9.140;2023-12-29T00:14:19;986.64;;;15.39;50.28
45071;BME280;30836;48.906;9.140;2023-12-29T00:15:20;986.66;;;15.44;50.00
45071;BME280;30836;48.906;9.140;2023-12-29T00:16:20;986.66;;;15.51;49.85
45071;BME280;30836;48.906;9.140;2023-12-29T00:16:31;986.68;;;15.58;49.78
45071;BME280;30836;48.906;9.140;2023-12-29T00:17:31;986.66;;;15.55;50.01
45071;BME280;30836;48.906;9.140;2023-12-29T00:18:31;986.64;;;15.46;50.19
45071;BME280;30836;48.906;9.140;2023-12-29T00:19:32;986.68;;;15.41;50.10
45071;BME280;30836;48.906;9.140;2023-12-29T00:20:32;986.66;;;15.43;49.90
45071;BME280;30836;48.906;9.140;2023-12-29T00:21:33;986.66;;;15.39;50.44
45071;BME280;30836;48.906;9.140;2023-12-29T00:22:33;986.64;;;15.29;50.56
45071;BME280;30836;48.906;9.140;2023-12-29T00:23:34;986.70;;;15.26;50.36
45071;BME280;30836;48.906;9.140;2023-12-29T00:24:34;986.64;;;15.28;50.43
45071;BME280;30836;48.906;9.140;2023-12-29T00:25:35;986.66;;;15.30;50.36
45071;BME280;30836;48.906;9.140;2023-12-29T00:26:36;986.66;;;15.35;50.14
45071;BME280;30836;48.906;9.140;2023-12-29T00:27:37;986.68;;;15.35;50.32
45071;BME280;30836;48.906;9.140;2023-12-29T00:28:37;986.70;;;15.32;50.33
45071;BME280;30836;48.906;9.140;2023-12-29T00:29:37;986.68;;;15.34;50.20
45071;BME280;30836;48.906;9.140;2023-12-29T00:30:38;986.76;;;15.39;50.13
45071;BME280;30836;48.906;9.140;2023-12-29T00:31:39;986.72;;;15.40;50.08
45071;BME280;30836;48.906;9.140;2023-12-29T00:32:39;986.70;;;15.43;49.92
45071;BME280;30836;48.906;9.140;2023-12-29T00:33:39;986.70;;;15.45;50.03
45071;BME280;30836;48.906;9.140;2023-12-29T00:34:40;986.70;;;15.49;49.84
45071;BME280;30836;48.906;9.140;2023-12-29T00:35:40;986.72;;;15.53;49.96
45071;BME280;30836;48.906;9.140;2023-12-29T00:36:41;986.72;;;15.49;50.33
45071;BME280;30836;48.906;9.140;2023-12-29T00:37:41;986.68;;;15.41;50.48
45071;BME280;30836;48.906;9.140;2023-12-29T00:38:42;986.76;;;15.40;50.20
45071;BME280;30836;48.906;9.140;2023-12-29T00:39:42;986.70;;;15.43;50.38
45071;BME280;30836;48.906;9.140;2023-12-29T00:40:43;986.72;;;15.41;50.41
45071;BME280;30836;48.906;9.140;2023-12-29T00:41:43;986.72;;;15.37;50.47
45071;BME280;30836;48.906;9.140;2023-12-29T00:42:44;986.70;;;15.31;50.73
45071;BME280;30836;48.906;9.140;2023-12-29T00:43:44;986.72;;;15.29;50.66
45071;BME280;30836;48.906;9.140;2023-12-29T00:44:44;986.72;;;15.33;50.43
45071;BME280;30836;48.906;9.140;2023-12-29T00:45:45;986.72;;;15.39;50.43
45071;BME280;30836;48.906;9.140;2023-12-29T00:46:45;986.76;;;15.39;50.29
45071;BME280;30836;48.906;9.140;2023-12-29T00:47:46;986.78;;;15.39;50.54
45071;BME280;30836;48.906;9.140;2023-12-29T00:48:46;986.82;;;15.35;50.66
45071;BME280;30836;48.906;9.140;2023-12-29T00:49:47;986.82;;;15.28;51.16
45071;BME280;30836;48.906;9.140;2023-12-29T00:50:47;986.82;;;15.24;51.14
45071;BME280;30836;48.906;9.140;2023-12-29T00:51:48;986.84;;;15.32;50.91
45071;BME280;30836;48.906;9.140;2023-12-29T00:52:48;986.89;;;15.42;50.81
45071;BME280;30836;48.906;9.140;2023-12-29T00:53:49;986.89;;;15.46;50.90
45071;BME280;30836;48.906;9.140;2023-12-29T00:54:49;986.87;;;15.47;50.95
45071;BME280;30836;48.906;9.140;2023-12-29T00:55:50;986.85;;;15.54;50.76
45071;BME280;30836;48.906;9.140;2023-12-29T00:56:50;986.84;;;15.61;50.72
45071;BME280;30836;48.906;9.140;2023-12-29T00:57:51;986.82;;;15.65;50.53
45071;BME280;30836;48.906;9.140;2023-12-29T00:58:52;986.89;;;15.70;50.61
45071;BME280;30836;48.906;9.140;2023-12-29T00:59:52;986.89;;;15.74;50.50
45071;BME280;30836;48.906;9.140;2023-12-29T01:00:53;986.87;;;15.76;50.62
45071;BME280;30836;48.906;9.140;2023-12-29T01:01:53;986.85;;;15.76;50.50
45071;BME280;30836;48.906;9.140;2023-12-29T01:02:54;986.84;;;15.81;50.40
45071;BME280;30836;48.906;9.140;2023-12-29T01:03:54;986.84;;;15.84;50.34
45071;BME280;30836;48.906;9.140;2023-12-29T01:04:55;986.85;;;15.76;50.58
45071;BME280;30836;48.906;9.140;2023-12-29T01:05:55;986.87;;;15.65;50.65
45071;BME280;30836;48.906;9.140;2023-12-29T01:06:55;986.84;;;15.62;50.45
45071;BME280;30836;48.906;9.140;2023-12-29T01:07:56;986.87;;;15.60;50.61
45071;BME280;30836;48.906;9.140;2023-12-29T01:08:56;986.87;;;15.59;50.59
45071;BME280;30836;48.906;9.140;2023-12-29T01:09:57;986.87;;;15.65;50.37
45071;BME280;30836;48.906;9.140;2023-12-29T01:10:57;986.87;;;15.66;50.48
45071;BME280;30836;48.906;9.140;2023-12-29T01:11:57;986.89;;;15.64;50.45
45071;BME280;30836;48.906;9.140;2023-12-29T01:12:58;986.87;;;15.64;50.50
45071;BME280;30836;48.906;9.140;2023-12-29T01:13:58;986.89;;;15.66;50.35
45071;BME280;30836;48.906;9.140;2023-12-29T01:14:59;986.87;;;15.70;50.18
45071;BME280;30836;48.906;9.140;2023-12-29T01:15:59;986.89;;;15.75;50.17
45071;BME280;30836;48.906;9.140;2023-12-29T01:17:00;986.85;;;15.81;49.95
45071;BME280;30836;48.906;9.140;2023-12-29T01:18:00;986.85;;;15.90;49.77
45071;BME280;30836;48.906;9.140;2023-12-29T01:19:00;986.85;;;15.91;49.86
45071;BME280;30836;48.906;9.140;2023-12-29T01:20:01;986.84;;;15.87;49.97
45071;BME280;30836;48.906;9.140;2023-12-29T01:21:01;986.82;;;15.88;49.78
45071;BME280;30836;48.906;9.140;2023-12-29T01:22:02;986.80;;;15.96;49.57
45071;BME280;30836;48.906;9.140;2023-12-29T01:23:03;986.82;;;16.00;49.63
45071;BME280;30836;48.906;9.140;2023-12-29T01:24:03;986.84;;;15.94;49.69
45071;BME280;30836;48.906;9.140;2023-12-29T01:25:04;986.84;;;15.91;49.62
45071;BME280;30836;48.906;9.140;2023-12-29T01:26:05;986.82;;;15.96;49.45
45071;BME280;30836;48.906;9.140;2023-12-29T01:27:05;986.82;;;16.06;49.23
45071;BME280;30836;48.906;9.140;2023-12-29T01:28:05;986.78;;;16.15;49.14
45071;BME280;30836;48.906;9.140;2023-12-29T01:29:06;986.76;;;16.20;49.03
45071;BME280;30836;48.906;9.140;2023-12-29T01:30:06;986.76;;;16.25;48.85
45071;BME280;30836;48.906;9.140;2023-12-29T01:31:07;986.78;;;16.31;48.67
45071;BME280;30836;48.906;9.140;2023-12-29T01:32:08;986.78;;;16.30;48.65
45071;BME280;30836;48.906;9.140;2023-12-29T01:33:08;986.80;;;16.30;48.67
45071;BME280;30836;48.906;9.140;2023-12-29T01:34:09;986.78;;;16.29;48.73
45071;BME280;30836;48.906;9.140;2023-12-29T01:35:09;986.78;;;16.24;48.78
45071;BME280;30836;48.906;9.140;2023-12-29T01:36:16;986.74;;;16.16;48.95
45071;BME280;30836;48.906;9.140;2023-12-29T01:37:18;986.70;;;16.08;48.93
45071;BME280;30836;48.906;9.140;2023-12-29T01:38:18;986.64;;;15.99;49.37
45071;BME280;30836;48.906;9.140;2023-12-29T01:39:19;986.64;;;15.98;49.06
45071;BME280;30836;48.906;9.140;2023-12-29T01:40:19;986.66;;;16.03;48.86
45071;BME280;30836;48.906;9.140;2023-12-29T01:41:20;986.66;;;16.08;48.77
45071;BME280;30836;48.906;9.140;2023-12-29T01:42:21;986.66;;;16.09;48.87
45071;BME280;30836;48.906;9.140;2023-12-29T01:43:21;986.64;;;16.03;49.14
45071;BME280;30836;48.906;9.140;2023-12-29T01:44:22;986.64;;;15.99;49.08
45071;BME280;30836;48.906;9.140;2023-12-29T01:45:23;986.62;;;15.96;49.23
45071;BME280;30836;48.906;9.140;2023-12-29T01:46:33;986.62;;;15.90;49.32
45071;BME280;30836;48.906;9.140;2023-12-29T01:47:31;986.58;;;15.90;49.06
45071;BME280;30836;48.906;9.140;2023-12-29T01:48:32;986.58;;;15.98;48.92
45071;BME280;30836;48.906;9.140;2023-12-29T01:49:33;986.60;;;16.01;48.98
45071;BME280;30836;48.906;9.140;2023-12-29T01:50:34;986.56;;;16.03;48.92
45071;BME280;30836;48.906;9.140;2023-12-29T01:51:35;986.56;;;16.11;48.63
45071;BME280;30836;48.906;9.140;2023-12-29T01:52:35;986.54;;;16.16;48.53
45071;BME280;30836;48.906;9.140;2023-12-29T01:53:36;986.54;;;16.19;48.48
45071;BME280;30836;48.906;9.140;2023-12-29T01:54:37;986.56;;;16.21;48.46
45071;BME280;30836;48.906;9.140;2023-12-29T01:55:38;986.56;;;16.21;48.38
45071;BME280;30836;48.906;9.140;2023-12-29T01:55:48;986.56;;;16.22;48.36
45071;BME280;30836;48.906;9.140;2023-12-29T01:56:50;986.58;;;16.23;48.30
45071;BME280;30836;48.906;9.140;2023-12-29T01:57:51;986.62;;;16.24;48.23
45071;BME280;30836;48.906;9.140;2023-12-29T01:58:53;986.60;;;16.20;48.54
45071;BME280;30836;48.906;9.140;2023-12-29T01:59:55;986.60;;;16.12;48.58
45071;BME280;30836;48.906;9.140;2023-12-29T02:00:56;986.56;;;16.05;48.53
45071;BME280;30836;48.906;9.140;2023-12-29T02:01:56;986.52;;;15.97;48.79
45071;BME280;30836;48.906;9.140;2023-12-29T02:02:57;986.52;;;15.92;48.83
45071;BME280;30836;48.906;9.140;2023-12-29T02:03:57;986.54;;;15.90;48.72
45071;BME280;30836;48.906;9.140;2023-12-29T02:04:58;986.54;;;15.96;48.54
45071;BME280;30836;48.906;9.140;2023-12-29T02:05:58;986.50;;;16.04;48.35
45071;BME280;30836;48.906;9.140;2023-12-29T02:06:59;986.50;;;16.08;48.24
45071;BME280;30836;48.906;9.140;2023-12-29T02:08:00;986.52;;;16.10;48.30
45071;BME280;30836;48.906;9.140;2023-12-29T02:09:01;986.48;;;16.10;48.31
45071;BME280;30836;48.906;9.140;2023-12-29T02:10:02;986.46;;;16.06;48.38
45071;BME280;30836;48.906;9.140;2023-12-29T02:11:06;986.42;;;16.06;48.23
45071;BME280;30836;48.906;9.140;2023-12-29T02:12:07;986.40;;;16.11;47.93
45071;BME280;30836;48.906;9.140;2023-12-29T02:13:07;986.40;;;16.22;47.60
45071;BME280;30836;48.906;9.140;2023-12-29T02:14:08;986.42;;;16.35;47.39
45071;BME280;30836;48.906;9.140;2023-12-29T02:15:09;986.40;;;16.40;47.50
45071;BME280;30836;48.906;9.140;2023-12-29T02:16:17;986.40;;;16.45;47.12
45071;BME280;30836;48.906;9.140;2023-12-29T02:17:27;986.36;;;16.51;46.97
45071;BME280;30836;48.906;9.140;2023-12-29T02:18:36;986.34;;;16.52;47.03
45071;BME280;30836;48.906;9.140;2023-12-29T02:18:47;986.38;;;16.66;46.92
45071;BME280;30836;48.906;9.140;2023-12-29T02:19:50;986.40;;;16.59;47.00
45071;BME280;30836;48.906;9.140;2023-12-29T02:20:52;986.42;;;16.44;47.41
45071;BME280;30836;48.906;9.140;2023-12-29T02:21:53;986.40;;;16.33;47.58
45071;BME280;30836;48.906;9.140;2023-12-29T02:22:53;986.40;;;16.28;47.55
45071;BME280;30836;48.906;9.140;2023-12-29T02:23:54;986.38;;;16.26;47.65
45071;BME280;30836;48.906;9.140;2023-12-29T02:24:54;986.40;;;16.20;47.85
45071;BME280;30836;48.906;9.140;2023-12-29T02:25:55;986.40;;;16.09;48.20
45071;BME280;30836;48.906;9.140;2023-12-29T02:27:03;986.42;;;15.94;48.59
45071;BME280;30836;48.906;9.140;2023-12-29T02:28:15;986.42;;;15.84;48.61
45071;BME280;30836;48.906;9.140;2023-12-29T02:29:23;986.42;;;15.85;48.53
45071;BME280;30836;48.906;9.140;2023-12-29T02:31:30;986.40;;;15.85;48.51
45071;BME280;30836;48.906;9.140;2023-12-29T02:32:33;986.42;;;15.81;48.95
45071;BME280;30836;48.906;9.140;2023-12-29T02:33:40;986.42;;;15.74;49.00
45071;BME280;30836;48.906;9.140;2023-12-29T02:34:41;986.42;;;15.79;48.56
45071;BME280;30836;48.906;9.140;2023-12-29T02:35:44;986.40;;;15.86;48.51
45071;BME280;30836;48.906;9.140;2023-12-29T02:36:46;986.38;;;15.93;48.42
45071;BME280;30836;48.906;9.140;2023-12-29T02:37:48;986.36;;;16.04;47.83
45071;BME280;30836;48.906;9.140;2023-12-29T02:38:49;986.38;;;16.12;47.88
45071;BME280;30836;48.906;9.140;2023-12-29T02:39:50;986.40;;;16.10;48.17
45071;BME280;30836;48.906;9.140;2023-12-29T02:40:51;986.40;;;16.02;48.52
45071;BME280;30836;48.906;9.140;2023-12-29T02:41:51;986.38;;;16.01;48.21
45071;BME280;30836;48.906;9.140;2023-12-29T02:42:52;986.34;;;16.10;47.78
45071;BME280;30836;48.906;9.140;2023-12-29T02:43:52;986.34;;;16.22;47.63
45071;BME280;30836;48.906;9.140;2023-12-29T02:44:53;986.29;;;16.29;47.66
45071;BME280;30836;48.906;9.140;2023-12-29T02:45:53;986.29;;;16.36;47.45
45071;BME280;30836;48.906;9.140;2023-12-29T02:46:53;986.23;;;16.41;47.42
45071;BME280;30836;48.906;9.140;2023-12-29T02:47:54;986.25;;;16.42;47.41
45071;BME280;30836;48.906;9.140;2023-12-29T02:48:54;986.23;;;16.46;47.20
45071;BME280;30836;48.906;9.140;2023-12-29T02:49:55;986.25;;;16.45;47.34
45071;BME280;30836;48.906;9.140;2023-12-29T02:50:55;986.25;;;16.41;47.61
45071;BME280;30836;48.906;9.140;2023-12-29T02:51:56;986.23;;;16.37;47.58
45071;BME280;30836;48.906;9.140;2023-12-29T02:52:56;986.27;;;16.38;47.60
45071;BME280;30836;48.906;9.140;2023-12-29T02:53:56;986.21;;;16.45;47.28
45071;BME280;30836;48.906;9.140;2023-12-29T02:54:57;986.19;;;16.50;47.41
45071;BME280;30836;48.906;9.140;2023-12-29T02:55:57;986.21;;;16.49;47.33
45071;BME280;30836;48.906;9.140;2023-12-29T02:56:58;986.23;;;16.42;47.71
45071;BME280;30836;48.906;9.140;2023-12-29T02:57:58;986.21;;;16.33;47.95
45071;BME280;30836;48.906;9.140;2023-12-29T02:58:58;986.21;;;16.34;47.45
45071;BME280;30836;48.906;9.140;2023-12-29T02:59:59;986.17;;;16.32;48.28
45071;BME280;30836;48.906;9.140;2023-12-29T03:00:59;986.25;;;16.12;48.68
45071;BME280;30836;48.906;9.140;2023-12-29T03:02:00;986.13;;;15.97;48.88
45071;BME280;30836;48.906;9.140;2023-12-29T03:03:00;986.07;;;15.99;48.42
45071;BME280;30836;48.906;9.140;2023-12-29T03:04:01;986.09;;;16.02;48.48
45071;BME280;30836;48.906;9.140;2023-12-29T03:05:01;986.01;;;15.89;49.46
45071;BME280;30836;48.906;9.140;2023-12-29T03:06:02;986.05;;;15.74;49.60
45071;BME280;30836;48.906;9.140;2023-12-29T03:07:02;986.07;;;15.71;49.18
45071;BME280;30836;48.906;9.140;2023-12-29T03:08:03;986.09;;;15.79;48.88
45071;BME280;30836;48.906;9.140;2023-12-29T03:09:04;986.05;;;15.87;48.90
45071;BME280;30836;48.906;9.140;2023-12-29T03:10:04;986.09;;;15.96;48.68
45071;BME280;30836;48.906;9.140;2023-12-29T03:11:05;986.11;;;16.05;48.51
45071;BME280;30836;48.906;9.140;2023-12-29T03:12:06;986.15;;;16.09;48.56
45071;BME280;30836;48.906;9.140;2023-12-29T03:13:06;986.13;;;16.12;48.63
45071;BME280;30836;48.906;9.140;2023-12-29T03:14:07;986.13;;;16.17;48.26
45071;BME280;30836;48.906;9.140;2023-12-29T03:15:07;986.13;;;16.24;48.04
45071;BME280;30836;48.906;9.140;2023-12-29T03:16:08;986.13;;;16.27;48.00
45071;BME280;30836;48.906;9.140;2023-12-29T03:17:08;986.13;;;16.30;47.97
45071;BME280;30836;48.906;9.140;2023-12-29T03:18:09;986.15;;;16.34;47.97
45071;BME280;30836;48.906;9.140;2023-12-29T03:19:09;986.11;;;16.33;48.35
45071;BME280;30836;48.906;9.140;2023-12-29T03:20:10;986.11;;;16.30;47.97
45071;BME280;30836;48.906;9.140;2023-12-29T03:21:11;986.11;;;16.38;47.82
45071;BME280;30836;48.906;9.140;2023-12-29T03:22:11;986.09;;;16.48;47.43
45071;BME280;30836;48.906;9.140;2023-12-29T03:23:12;986.07;;;16.56;47.40
45071;BME280;30836;48.906;9.140;2023-12-29T03:24:12;986.07;;;16.49;47.95
45071;BME280;30836;48.906;9.140;2023-12-29T03:25:12;986.05;;;16.28;48.79
45071;BME280;30836;48.906;9.140;2023-12-29T03:26:13;986.09;;;16.09;49.09
45071;BME280;30836;48.906;9.140;2023-12-29T03:27:13;986.09;;;16.01;48.97
45071;BME280;30836;48.906;9.140;2023-12-29T03:28:14;986.07;;;16.03;48.82
45071;BME280;30836;48.906;9.140;2023-12-29T03:29:14;986.07;;;16.09;48.73
45071;BME280;30836;48.906;9.140;2023-12-29T03:30:15;986.05;;;16.17;48.45
45071;BME280;30836;48.906;9.140;2023-12-29T03:31:15;986.11;;;16.14;49.09
45071;BME280;30836;48.906;9.140;2023-12-29T03:32:15;986.03;;;16.01;49.20
45071;BME280;30836;48.906;9.140;2023-12-29T03:33:16;985.99;;;15.90;49.89
45071;BME280;30836;48.906;9.140;2023-12-29T03:34:16;985.99;;;15.81;49.59
45071;BME280;30836;48.906;9.140;2023-12-29T03:35:17;986.01;;;15.79;49.83
45071;BME280;30836;48.906;9.140;2023-12-29T03:36:17;985.95;;;15.67;50.36
45071;BME280;30836;48.906;9.140;2023-12-29T03:37:17;985.97;;;15.59;50.23
45071;BME280;30836;48.906;9.140;2023-12-29T03:38:18;986.03;;;15.57;50.23
45071;BME280;30836;48.906;9.140;2023-12-29T03:39:18;985.97;;;15.60;50.10
45071;BME280;30836;48.906;9.140;2023-12-29T03:40:19;985.97;;;15.71;49.85
45071;BME280;30836;48.906;9.140;2023-12-29T03:41:19;986.03;;;15.73;50.08
45071;BME280;30836;48.906;9.140;2023-12-29T03:42:20;986.03;;;15.71;50.17
45071;BME280;30836;48.906;9.140;2023-12-29T03:43:20;986.01;;;15.76;49.87
45071;BME280;30836;48.906;9.140;2023-12-29T03:44:21;985.99;;;15.74;50.48
45071;BME280;30836;48.906;9.140;2023-12-29T03:45:21;986.07;;;15.59;51.00
45071;BME280;30836;48.906;9.140;2023-12-29T03:46:22;986.09;;;15.43;51.44
45071;BME280;30836;48.906;9.140;2023-12-29T03:47:22;986.05;;;15.37;51.25
45071;BME280;30836;48.906;9.140;2023-12-29T03:48:23;986.03;;;15.36;51.25
45071;BME280;30836;48.906;9.140;2023-12-29T03:49:23;985.97;;;15.34;51.39
45071;BME280;30836;48.906;9.140;2023-12-29T03:50:24;985.97;;;15.35;51.46
45071;BME280;30836;48.906;9.140;2023-12-29T03:51:24;986.01;;;15.34;51.29
45071;BME280;30836;48.906;9.140;2023-12-29T03:52:25;985.99;;;15.33;51.56
45071;BME280;30836;48.906;9.140;2023-12-29T03:53:25;985.97;;;15.35;51.34
45071;BME280;30836;48.906;9.140;2023-12-29T03:54:25;985.99;;;15.44;51.07
45071;BME280;30836;48.906;9.140;2023-12-29T03:55:26;985.99;;;15.55;50.87
45071;BME280;30836;48.906;9.140;2023-12-29T03:56:26;985.99;;;15.55;51.30
45071;BME280;30836;48.906;9.140;2023-12-29T03:57:27;985.99;;;15.48;51.42
45071;BME280;30836;48.906;9.140;2023-12-29T03:58:27;986.07;;;15.50;51.22
45071;BME280;30836;48.906;9.140;2023-12-29T03:59:28;986.09;;;15.55;51.42
45071;BME280;30836;48.906;9.140;2023-12-29T04:00:28;986.13;;;15.50;51.88
45071;BME280;30836;48.906;9.140;2023-12-29T04:01:28;986.11;;;15.43;52.13
45071;BME280;30836;48.906;9.140;2023-12-29T04:02:29;986.05;;;15.40;52.50
45071;BME280;30836;48.906;9.140;2023-12-29T04:03:29;986.03;;;15.44;52.01
45071;BME280;30836;48.906;9.140;2023-12-29T04:04:30;986.03;;;15.54;51.91
45071;BME280;30836;48.906;9.140;2023-12-29T04:05:30;986.03;;;15.60;51.81
45071;BME280;30836;48.906;9.140;2023-12-29T04:06:30;985.97;;;15.64;51.83
45071;BME280;30836;48.906;9.140;2023-12-29T04:07:31;985.95;;;15.68;51.77
45071;BME280;30836;48.906;9.140;2023-12-29T04:08:32;985.95;;;15.70;51.67
45071;BME280;30836;48.906;9.140;2023-12-29T04:09:32;985.91;;;15.65;52.19
45071;BME280;30836;48.906;9.140;2023-12-29T04:10:33;985.87;;;15.64;52.08
45071;BME280;30836;48.906;9.140;2023-12-29T04:11:33;985.91;;;15.68;51.78
45071;BME280;30836;48.906;9.140;2023-12-29T04:12:34;985.89;;;15.71;51.72
45071;BME280;30836;48.906;9.140;2023-12-29T04:13:34;985.83;;;15.78;51.54
45071;BME280;30836;48.906;9.140;2023-12-29T04:14:35;985.80;;;15.88;51.28
45071;BME280;30836;48.906;9.140;2023-12-29T04:15:35;985.82;;;15.95;51.19
45071;BME280;30836;48.906;9.140;2023-12-29T04:16:36;985.83;;;15.97;51.17
45071;BME280;30836;48.906;9.140;2023-12-29T04:17:37;985.85;;;15.98;51.28
45071;BME280;30836;48.906;9.140;2023-12-29T04:18:37;985.83;;;15.98;51.21
45071;BME280;30836;48.906;9.140;2023-12-29T04:19:38;985.76;;;15.94;51.47
45071;BME280;30836;48.906;9.140;2023-12-29T04:20:38;985.78;;;15.94;51.20
45071;BME280;30836;48.906;9.140;2023-12-29T04:21:39;985.74;;;16.02;50.80
45071;BME280;30836;48.906;9.140;2023-12-29T04:22:39;985.70;;;16.08;50.97
45071;BME280;30836;48.906;9.140;2023-12-29T04:23:39;985.66;;;16.04;51.14
45071;BME280;30836;48.906;9.140;2023-12-29T04:24:40;985.60;;;15.95;51.13
45071;BME280;30836;48.906;9.140;2023-12-29T04:25:40;985.62;;;15.87;51.35
45071;BME280;30836;48.906;9.140;2023-12-29T04:26:41;985.64;;;15.81;51.68
45071;BME280;30836;48.906;9.140;2023-12-29T04:27:41;985.70;;;15.86;51.21
45071;BME280;30836;48.906;9.140;2023-12-29T04:28:42;985.72;;;15.90;51.51
45071;BME280;30836;48.906;9.140;2023-12-29T04:29:43;985.76;;;15.81;51.79
45071;BME280;30836;48.906;9.140;2023-12-29T04:30:44;985.74;;;15.72;51.98
45071;BME280;30836;48.906;9.140;2023-12-29T04:31:45;985.74;;;15.66;52.06
45071;BME280;30836;48.906;9.140;2023-12-29T04:32:45;985.76;;;15.66;51.87
45071;BME280;30836;48.906;9.140;2023-12-29T04:33:45;985.78;;;15.67;52.15
45071;BME280;30836;48.906;9.140;2023-12-29T04:34:46;985.85;;;15.59;52.17
45071;BME280;30836;48.906;9.140;2023-12-29T04:35:46;985.83;;;15.54;52.30
45071;BME280;30836;48.906;9.140;2023-12-29T04:36:47;985.87;;;15.55;52.32
45071;BME280;30836;48.906;9.140;2023-12-29T04:37:47;985.87;;;15.54;52.31
45071;BME280;30836;48.906;9.140;2023-12-29T04:38:48;985.89;;;15.56;51.99
45071;BME280;30836;48.906;9.140;2023-12-29T04:39:48;985.89;;;15.70;51.70
45071;BME280;30836;48.906;9.140;2023-12-29T04:40:48;985.91;;;15.83;51.29
45071;BME280;30836;48.906;9.140;2023-12-29T04:41:49;985.91;;;15.93;51.28
45071;BME280;30836;48.906;9.140;2023-12-29T04:42:49;985.93;;;15.94;51.40
45071;BME280;30836;48.906;9.140;2023-12-29T04:43:50;985.95;;;15.88;51.53
45071;BME280;30836;48.906;9.140;2023-12-29T04:44:50;985.95;;;15.85;51.66
45071;BME280;30836;48.906;9.140;2023-12-29T04:45:50;985.95;;;15.83;51.44
45071;BME280;30836;48.906;9.140;2023-12-29T04:46:51;985.93;;;15.80;51.66
45071;BME280;30836;48.906;9.140;2023-12-29T04:47:51;985.99;;;15.79;51.39
45071;BME280;30836;48.906;9.140;2023-12-29T04:48:52;985.97;;;15.75;51.92
45071;BME280;30836;48.906;9.140;2023-12-29T04:49:52;985.99;;;15.65;52.27
45071;BME280;30836;48.906;9.140;2023-12-29T04:50:52;986.01;;;15.65;51.97
45071;BME280;30836;48.906;9.140;2023-12-29T04:51:53;986.01;;;15.69;52.03
45071;BME280;30836;48.906;9.140;2023-12-29T04:52:53;986.01;;;15.68;51.92
45071;BME280;30836;48.906;9.140;2023-12-29T04:53:54;986.05;;;15.66;52.19
45071;BME280;30836;48.906;9.140;2023-12-29T04:54:54;986.07;;;15.58;52.42
45071;BME280;30836;48.906;9.140;2023-12-29T04:55:55;986.11;;;15.49;52.74
45071;BME280;30836;48.906;9.140;2023-12-29T04:56:55;986.15;;;15.49;52.33
45071;BME280;30836;48.906;9.140;2023-12-29T04:57:55;986.13;;;15.63;51.89
45071;BME280;30836;48.906;9.140;2023-12-29T04:58:56;986.17;;;15.73;51.97
45071;BME280;30836;48.906;9.140;2023-12-29T04:59:56;986.19;;;15.77;51.96
45071;BME280;30836;48.906;9.140;2023-12-29T05:00:57;986.21;;;15.79;52.13
45071;BME280;30836;48.906;9.140;2023-12-29T05:01:57;986.17;;;15.79;52.04
45071;BME280;30836;48.906;9.140;2023-12-29T05:02:57;986.19;;;15.84;51.79
45071;BME280;30836;48.906;9.140;2023-12-29T05:03:58;986.17;;;15.93;51.40
45071;BME280;30836;48.906;9.140;2023-12-29T05:04:58;986.13;;;16.03;51.33
45071;BME280;30836;48.906;9.140;2023-12-29T05:05:59;986.11;;;16.07;51.31
45071;BME280;30836;48.906;9.140;2023-12-29T05:06:59;986.11;;;16.12;51.23
45071;BME280;30836;48.906;9.140;2023-12-29T05:08:00;986.11;;;16.20;50.83
45071;BME280;30836;48.906;9.140;2023-12-29T05:09:00;986.09;;;16.33;50.51
45071;BME280;30836;48.906;9.140;2023-12-29T05:10:00;986.07;;;16.47;50.39
45071;BME280;30836;48.906;9.140;2023-12-29T05:11:01;986.07;;;16.52;50.43
45071;BME280;30836;48.906;9.140;2023-12-29T05:12:01;986.07;;;16.48;50.74
45071;BME280;30836;48.906;9.140;2023-12-29T05:13:02;986.09;;;16.44;50.63
45071;BME280;30836;48.906;9.140;2023-12-29T05:14:02;986.09;;;16.43;50.82
45071;BME280;30836;48.906;9.140;2023-12-29T05:15:03;986.11;;;16.43;50.60
45071;BME280;30836;48.906;9.140;2023-12-29T05:16:05;986.15;;;16.51;50.42
45071;BME280;30836;48.906;9.140;2023-12-29T05:17:06;986.17;;;16.56;50.36
45071;BME280;30836;48.906;9.140;2023-12-29T05:18:06;986.17;;;16.59;50.32
45071;BME280;30836;48.906;9.140;2023-12-29T05:19:06;986.17;;;16.64;50.19
45071;BME280;30836;48.906;9.140;2023-12-29T05:20:07;986.15;;;16.72;50.05
45071;BME280;30836;48.906;9.140;2023-12-29T05:22:14;986.15;;;16.82;49.84
45071;BME280;30836;48.906;9.140;2023-12-29T05:23:14;986.15;;;16.92;49.60
45071;BME280;30836;48.906;9.140;2023-12-29T05:24:15;986.15;;;17.01;49.48
45071;BME280;30836;48.906;9.140;2023-12-29T05:25:15;986.13;;;17.06;49.43
45071;BME280;30836;48.906;9.140;2023-12-29T05:26:16;986.11;;;17.04;49.64
45071;BME280;30836;48.906;9.140;2023-12-29T05:27:16;986.07;;;17.00;49.66
45071;BME280;30836;48.906;9.140;2023-12-29T05:28:17;986.07;;;16.93;50.10
45071;BME280;30836;48.906;9.140;2023-12-29T05:29:17;986.07;;;16.83;50.18
45071;BME280;30836;48.906;9.140;2023-12-29T05:30:17;986.05;;;16.79;50.31